1893 Hurricane NOT_NAMED (1893268N12335)


IBTrACS version v04r00. Visit IBTrACS website for data access.
Please direct all questions to the IBTrACS Q and A forum

Storm track - Intensity - Wind Radii - Intensity Data - Source Data - All data

Summary Information

Storm ID 1893268N12335
Start Sep 25 06Z
Landfall Oct 13 15Z
Max Intensity 105 kt (Oct 2 12Z), 955 mb (Oct 13 12Z)
End Oct 15 18Z
ATCF IDs AL091893
Track status Best track data.

Storm track plot

Map of storm track

Intensity plots

Map of storm track

Radial wind information

No radial wind information for this storm


Position and Intensity Table

BASIN ISO_TIME_________ NATURE LAT LON WMO WIND WMO PRES USA WIND USA PRES MLC WIND MLC PRES
degrees north degrees east kts mb kts mb kts mb
NA 1893-09-25 06:00:00 TS 11.60 -25.00 35 35
NA 09:00:00 TS 11.59 -25.39 37
NA 12:00:00 TS 12.06 -25.69 40 40 30
NA 15:00:00 TS 12.29 -26.08 42 32
NA 18:00:00 TS 12.57 -26.45 45 45 35
NA 21:00:00 TS 12.77 -26.79 45 37
NA 1893-09-26 00:00:00 TS 12.77 -27.17 45 45 40
NA 03:00:00 TS 12.76 -27.57 45 42
NA 06:00:00 TS 12.77 -27.97 45 45 45
NA 09:00:00 TS 12.78 -28.35 47 47
NA 12:00:00 TS 12.80 -28.73 50 50 50 997
NA 15:00:00 TS 12.80 -29.11 50 50
NA 18:00:00 TS 12.80 -29.47 50 50 50
NA 21:00:00 TS 12.80 -29.82 52 52
NA 1893-09-27 00:00:00 TS 12.80 -30.17 55 55 55
NA 03:00:00 TS 12.82 -30.49 55 55
NA 06:00:00 TS 12.83 -30.83 55 55 55
NA 09:00:00 TS 12.84 -31.20 57 57
NA 12:00:00 TS 12.83 -31.60 60 60 60
NA 15:00:00 TS 12.83 -32.03 60 60
NA 18:00:00 TS 12.83 -32.47 60 60 60
NA 21:00:00 TS 12.83 -32.85 62 60
NA 1893-09-28 00:00:00 TS 12.83 -33.23 65 65 60
NA 03:00:00 TS 12.88 -33.66 65 62
NA 06:00:00 TS 12.93 -34.10 65 65 65
NA 09:00:00 TS 12.94 -34.52 65 67
NA 12:00:00 TS 12.93 -34.93 65 65 70
NA 15:00:00 TS 12.74 -35.45 65 70
NA 18:00:00 TS 12.50 -36.00 65 65 70
NA 21:00:00 TS 12.19 -36.57 65
NA 1893-09-29 00:00:00 TS 11.80 -37.20 65 65
NA 03:00:00 TS 11.80 -37.65 65
NA 06:00:00 TS 11.80 -38.10 65 65
NA 09:00:00 TS 11.80 -38.56 65
NA 12:00:00 TS 11.80 -39.00 65 65
NA 15:00:00 TS 11.79 -39.42 65
NA 18:00:00 TS 11.80 -39.80 65 65
NA 21:00:00 TS 11.85 -40.16 65
NA 1893-09-30 00:00:00 TS 11.90 -40.50 65 65
NA 03:00:00 TS 11.90 -40.84 65
NA 06:00:00 TS 11.90 -41.20 65 65
NA 09:00:00 TS 11.94 -41.58 65
NA 12:00:00 TS 12.00 -42.00 65 65
NA 15:00:00 TS 12.04 -42.49 67
NA 18:00:00 TS 12.10 -43.00 70 70
NA 21:00:00 TS 12.19 -43.45 72
NA 1893-10-01 00:00:00 TS 12.30 -43.90 75 75
NA 03:00:00 TS 12.39 -44.39 77
NA 06:00:00 TS 12.50 -44.90 80 80
NA 09:00:00 TS 12.65 -45.40 82
NA 12:00:00 TS 12.80 -45.90 85 85
NA 15:00:00 TS 12.90 -46.39 87
NA 18:00:00 TS 13.00 -46.90 90 90
NA 21:00:00 TS 13.14 -47.45 92
NA 1893-10-02 00:00:00 TS 13.30 -48.00 95 95
NA 03:00:00 TS 13.44 -48.51 97
NA 06:00:00 TS 13.60 -49.00 100 100
NA 09:00:00 TS 13.79 -49.51 102
NA 12:00:00 TS 14.00 -50.00 105 105
NA 15:00:00 TS 14.20 -50.47 105
NA 18:00:00 TS 14.40 -50.90 105 105
NA 21:00:00 TS 14.60 -51.27 105
NA 1893-10-03 00:00:00 TS 14.80 -51.60 105 105
NA 03:00:00 TS 14.99 -51.92 105
NA 06:00:00 TS 15.20 -52.20 105 105
NA 09:00:00 TS 15.43 -52.46 105
NA 12:00:00 TS 15.70 -52.70 105 105
NA 15:00:00 TS 15.99 -52.95 105
NA 18:00:00 TS 16.30 -53.20 105 105
NA 21:00:00 TS 16.59 -53.45 105
NA 1893-10-04 00:00:00 TS 16.90 -53.70 105 105
NA 03:00:00 TS 17.25 -53.95 105
NA 06:00:00 TS 17.60 -54.20 105 105
NA 09:00:00 TS 18.05 -54.08 105
NA 12:00:00 TS 18.42 -54.06 105 105 100
NA 15:00:00 TS 18.78 -54.12 105 100
NA 18:00:00 TS 19.10 -54.23 105 105 100
NA 21:00:00 TS 19.32 -54.55 105 100
NA 1893-10-05 00:00:00 TS 19.53 -54.87 105 105 100
NA 03:00:00 TS 19.75 -55.17 105 100
NA 06:00:00 TS 19.97 -55.47 105 105 100
NA 09:00:00 TS 20.17 -55.76 105 100
NA 12:00:00 TS 20.37 -56.07 105 105 100
NA 15:00:00 TS 20.57 -56.38 105 100
NA 18:00:00 TS 20.77 -56.70 105 105 100
NA 21:00:00 TS 20.94 -57.02 105 100
NA 1893-10-06 00:00:00 TS 21.10 -57.33 105 105 100
NA 03:00:00 TS 21.25 -57.65 105 100
NA 06:00:00 TS 21.40 -57.97 105 105 100
NA 09:00:00 TS 21.54 -58.28 105 102
NA 12:00:00 TS 21.67 -58.60 105 105 105
NA 15:00:00 TS 21.77 -58.91 105 105
NA 18:00:00 TS 21.87 -59.23 105 105 105
NA 21:00:00 TS 21.97 -59.58 105 105
NA 1893-10-07 00:00:00 TS 22.07 -59.93 105 105 105
NA 03:00:00 TS 22.17 -60.27 105 105
NA 06:00:00 TS 22.27 -60.60 105 105 105
NA 09:00:00 TS 22.36 -60.93 105 105
NA 12:00:00 TS 22.47 -61.27 105 105 105
NA 15:00:00 TS 22.59 -61.64 105 105
NA 18:00:00 TS 22.70 -62.03 105 105 105
NA 21:00:00 TS 22.77 -62.45 105 105
NA 1893-10-08 00:00:00 TS 22.83 -62.87 105 105 105
NA 03:00:00 TS 22.93 -63.28 105 105
NA 06:00:00 TS 23.03 -63.70 105 105 105
NA 09:00:00 TS 23.15 -64.15 105 105
NA 12:00:00 TS 23.27 -64.60 105 105 105
NA 15:00:00 TS 23.37 -65.05 105 105
NA 18:00:00 TS 23.47 -65.50 105 105 105
NA 21:00:00 TS 23.56 -65.95 105 105
NA 1893-10-09 00:00:00 TS 23.67 -66.40 105 105 105
NA 03:00:00 TS 23.78 -66.85 105 105
NA 06:00:00 TS 23.90 -67.30 105 105 105
NA 09:00:00 TS 24.00 -67.75 105 105
NA 12:00:00 TS 24.10 -68.20 105 105 105
NA 15:00:00 TS 24.22 -68.66 105 105
NA 18:00:00 TS 24.33 -69.10 105 105 105
NA 21:00:00 TS 24.43 -69.52 105 105
NA 1893-10-10 00:00:00 TS 24.53 -69.93 105 105 105
NA 03:00:00 TS 24.66 -70.35 105 105
NA 06:00:00 TS 24.80 -70.77 105 105 105
NA 09:00:00 TS 24.92 -71.21 105 105
NA 12:00:00 TS 25.03 -71.67 105 105 105
NA 15:00:00 TS 25.13 -72.15 105 105
NA 18:00:00 TS 25.23 -72.63 105 105 105
NA 21:00:00 TS 25.36 -73.12 105 105
NA 1893-10-11 00:00:00 TS 25.50 -73.60 105 105 105
NA 03:00:00 TS 25.65 -74.08 105 105
NA 06:00:00 TS 25.80 -74.57 105 105 105
NA 09:00:00 TS 25.94 -75.05 105 105
NA 12:00:00 TS 26.07 -75.53 105 105 105
NA 15:00:00 TS 26.18 -76.01 105 105
NA 18:00:00 TS 26.33 -76.47 105 105 105
NA 21:00:00 TS 26.56 -76.91 105 105
NA 1893-10-12 00:00:00 TS 26.80 -77.37 105 105 105
NA 03:00:00 TS 26.99 -77.86 105 105
NA 06:00:00 TS 27.20 -78.37 105 105 105
NA 09:00:00 TS 27.48 -78.88 105 105
NA 12:00:00 TS 27.80 -79.33 105 105 105
NA 15:00:00 TS 28.13 -79.62 105 105
NA 18:00:00 TS 28.53 -79.87 105 105 105
NA 21:00:00 TS 29.02 -80.23 105 105
NA 1893-10-13 00:00:00 TS 29.60 -80.53 105 105 105
NA 03:00:00 TS 30.23 -80.71 105 105
NA 06:00:00 TS 30.93 -80.67 105 105 105
NA 09:00:00 TS 31.60 -80.34 105 105
NA 12:00:00 TS 32.47 -79.83 105 955 105 955 105 955
NA 13:00:00 TS 32.83 -79.63 105 955 105 955 100
NA 15:00:00 TS 33.56 -79.20 94 92
NA 18:00:00 TS 34.87 -78.67 80 80 80
NA 21:00:00 TS 36.66 -78.54 72 72
NA 1893-10-14 00:00:00 TS 38.63 -78.57 65 65 65
NA 03:00:00 TS 40.44 -78.52 62 62
NA 06:00:00 TS 42.20 -78.33 60 60 60
NA 09:00:00 TS 44.02 -77.88 60 60
NA 12:00:00 MX 45.70 -77.20 60 60 60
NA 15:00:00 MX 47.08 -76.40 60 60
NA 18:00:00 ET 48.30 -75.43 60 60 60
NA 21:00:00 ET 49.53 -74.35 60 60
NA 1893-10-15 00:00:00 ET 50.70 -73.17 60 60 60
NA 03:00:00 ET 51.83 -71.95 60 60
NA 06:00:00 ET 52.90 -70.70 60 60 60
NA 09:00:00 ET 53.91 -69.42 55 55
NA 12:00:00 ET 54.90 -68.20 50 50 50
NA 15:00:00 ET 55.94 -67.08 45 45
NA 18:00:00 ET 57.00 -66.00 40 40 40

Source Information

Agency Information
USA hurdat2-1851-2018-051019.txt:Line=7748:UNNAMED
TOKYO
CMA
HKO
NEWDELHI
REUNION
BOM
NADI
WELLINGTON
DS824
TD9636
TD9635
NEUMANN
MLC

All available IBTrACS Data

SEASON BASIN SUBBASIN ISO_TIME_________ NATURE LAT LON WMO WIND WMO PRES WMO AGENCY DIST2LAND LANDFALL IFLAG USA AGENCY USA ATCF_ID USA LAT USA LON USA RECORD USA STATUS USA WIND USA PRES USA SSHS MLC LAT MLC LON MLC CLASS MLC WIND MLC PRES STORM SPEED STORM DIR
Year degrees north degrees east kts mb km km degrees north degrees east kts mb 1 degrees north degrees east kts mb kts degrees
1893 NA NA 1893-09-25 06:00:00 TS 11.60 -25.00 35 hurdat_atl 883 883 O_____________ hurdat_atl AL091893 11.60 -25.00 TS 35 0 8 268
1893 NA NA 09:00:00 TS 11.59 -25.39 923 923 P_____________ AL091893 11.59 -25.39 TS 37 0 8 304
1893 NA NA 12:00:00 TS 12.06 -25.69 40 hurdat_atl 933 933 O____________O hurdat_atl AL091893 11.60 -25.80 TS 40 0 14.80 -25.00 TD 30 10 316
1893 NA NA 15:00:00 TS 12.29 -26.08 968 968 P____________P AL091893 11.65 -26.25 TS 42 0 14.86 -25.41 TD 32 9 304
1893 NA NA 18:00:00 TS 12.57 -26.45 45 hurdat_atl 1000 1000 O____________O hurdat_atl AL091893 11.70 -26.70 TS 45 0 14.90 -25.80 TS 35 8 305
1893 NA NA 21:00:00 TS 12.77 -26.79 1027 1027 P____________P AL091893 11.71 -27.11 TS 45 0 14.91 -26.15 TS 37 7 286
1893 NA NA 1893-09-26 00:00:00 TS 12.77 -27.17 45 hurdat_atl 1069 1069 O____________O hurdat_atl AL091893 11.70 -27.50 TS 45 0 14.90 -26.50 TS 40 8 269
1893 NA NA 03:00:00 TS 12.76 -27.57 1111 1111 P____________P AL091893 11.70 -27.90 TS 45 0 14.89 -26.90 TS 42 8 270
1893 NA NA 06:00:00 TS 12.77 -27.97 45 hurdat_atl 1154 1154 O____________O hurdat_atl AL091893 11.70 -28.30 TS 45 0 14.90 -27.30 TS 45 8 271
1893 NA NA 09:00:00 TS 12.78 -28.35 1196 1196 P____________P AL091893 11.70 -28.71 TS 47 0 14.95 -27.65 TS 47 7 273
1893 NA NA 12:00:00 TS 12.80 -28.73 50 hurdat_atl 1228 1228 O____________O hurdat_atl AL091893 11.70 -29.10 TS 50 0 15.00 -28.00 TS 50 997 7 272
1893 NA NA 15:00:00 TS 12.80 -29.11 1271 1271 P____________P AL091893 11.70 -29.46 TS 50 0 15.01 -28.40 TS 50 7 270
1893 NA NA 18:00:00 TS 12.80 -29.47 50 hurdat_atl 1313 1313 O____________O hurdat_atl AL091893 11.70 -29.80 TS 50 0 15.00 -28.80 TS 50 7 270
1893 NA NA 21:00:00 TS 12.80 -29.82 1345 1345 P____________P AL091893 11.70 -30.16 TS 52 0 14.99 -29.15 TS 52 7 270
1893 NA NA 1893-09-27 00:00:00 TS 12.80 -30.17 55 hurdat_atl 1388 1388 O____________O hurdat_atl AL091893 11.70 -30.50 TS 55 0 15.00 -29.50 TS 55 7 272
1893 NA NA 03:00:00 TS 12.82 -30.49 1420 1420 P____________P AL091893 11.70 -30.79 TS 55 0 15.05 -29.90 TS 55 7 273
1893 NA NA 06:00:00 TS 12.83 -30.83 55 hurdat_atl 1452 1452 O____________O hurdat_atl AL091893 11.70 -31.10 TS 55 0 15.10 -30.30 TS 55 7 272
1893 NA NA 09:00:00 TS 12.84 -31.20 1495 1495 P____________P AL091893 11.70 -31.48 TS 57 0 15.11 -30.65 TS 57 7 270
1893 NA NA 12:00:00 TS 12.83 -31.60 60 hurdat_atl 1538 1538 O____________O hurdat_atl AL091893 11.70 -31.90 TS 60 0 15.10 -31.00 TS 60 8 270
1893 NA NA 15:00:00 TS 12.83 -32.03 1581 1581 P____________P AL091893 11.70 -32.35 TS 60 0 15.10 -31.40 TS 60 8 270
1893 NA NA 18:00:00 TS 12.83 -32.47 60 hurdat_atl 1634 1634 O____________O hurdat_atl AL091893 11.70 -32.80 TS 60 0 15.10 -31.80 TS 60 8 269
1893 NA NA 21:00:00 TS 12.83 -32.85 1677 1677 P____________P AL091893 11.69 -33.20 TS 62 0 15.09 -32.15 TS 60 7 270
1893 NA NA 1893-09-28 00:00:00 TS 12.83 -33.23 65 hurdat_atl 1709 1709 O____________O hurdat_atl AL091893 11.70 -33.60 HU 65 1 15.10 -32.50 TS 60 8 274
1893 NA NA 03:00:00 TS 12.88 -33.66 1761 1761 P____________P AL091893 11.75 -34.04 HU 65 1 15.15 -32.90 TS 62 9 277
1893 NA NA 06:00:00 TS 12.93 -34.10 65 hurdat_atl 1804 1804 O____________O hurdat_atl AL091893 11.80 -34.50 HU 65 1 15.20 -33.30 HU 65 8 274
1893 NA NA 09:00:00 TS 12.94 -34.52 1847 1847 P____________P AL091893 11.81 -34.95 HU 65 1 15.20 -33.65 HU 67 8 270
1893 NA NA 12:00:00 TS 12.93 -34.93 65 hurdat_atl 1851 1825 O____________O hurdat_atl AL091893 11.80 -35.40 HU 65 1 15.20 -34.00 HU 70 9 258
1893 NA NA 15:00:00 TS 12.74 -35.45 1811 1775 P____________P AL091893 11.80 -35.85 HU 65 1 15.24 -34.39 HU 70 11 247
1893 NA NA 18:00:00 TS 12.50 -36.00 65 hurdat_atl 1775 1730 O____________O hurdat_atl AL091893 11.80 -36.30 HU 65 1 15.30 -34.80 HU 70 12 243
1893 NA NA 21:00:00 TS 12.19 -36.57 1728 1671 P_____________ AL091893 11.80 -36.75 HU 65 1 HU 14 239
1893 NA NA 1893-09-29 00:00:00 TS 11.80 -37.20 65 hurdat_atl 1671 1664 O_____________ hurdat_atl AL091893 11.80 -37.20 HU 65 1 HU 11 250
1893 NA NA 03:00:00 TS 11.80 -37.65 1664 1657 P_____________ AL091893 11.80 -37.65 HU 65 1 HU 9 270
1893 NA NA 06:00:00 TS 11.80 -38.10 65 hurdat_atl 1657 1640 O_____________ hurdat_atl AL091893 11.80 -38.10 HU 65 1 HU 9 270
1893 NA NA 09:00:00 TS 11.80 -38.56 1631 1593 P_____________ AL091893 11.80 -38.56 HU 65 1 HU 9 270
1893 NA NA 12:00:00 TS 11.80 -39.00 65 hurdat_atl 1593 1556 O_____________ hurdat_atl AL091893 11.80 -39.00 HU 65 1 HU 8 269
1893 NA NA 15:00:00 TS 11.79 -39.42 1556 1519 P_____________ AL091893 11.79 -39.42 HU 65 1 HU 8 270
1893 NA NA 18:00:00 TS 11.80 -39.80 65 hurdat_atl 1519 1492 O_____________ hurdat_atl AL091893 11.80 -39.80 HU 65 1 HU 7 275
1893 NA NA 21:00:00 TS 11.85 -40.16 1483 1462 P_____________ AL091893 11.85 -40.16 HU 65 1 HU 7 278
1893 NA NA 1893-09-30 00:00:00 TS 11.90 -40.50 65 hurdat_atl 1462 1435 O_____________ hurdat_atl AL091893 11.90 -40.50 HU 65 1 HU 7 274
1893 NA NA 03:00:00 TS 11.90 -40.84 1435 1400 P_____________ AL091893 11.90 -40.84 HU 65 1 HU 7 270
1893 NA NA 06:00:00 TS 11.90 -41.20 65 hurdat_atl 1400 1365 O_____________ hurdat_atl AL091893 11.90 -41.20 HU 65 1 HU 7 273
1893 NA NA 09:00:00 TS 11.94 -41.58 1365 1338 P_____________ AL091893 11.94 -41.58 HU 65 1 HU 8 277
1893 NA NA 12:00:00 TS 12.00 -42.00 65 hurdat_atl 1338 1297 O_____________ hurdat_atl AL091893 12.00 -42.00 HU 65 1 HU 9 276
1893 NA NA 15:00:00 TS 12.04 -42.49 1297 1264 P_____________ AL091893 12.04 -42.49 HU 67 1 HU 10 276
1893 NA NA 18:00:00 TS 12.10 -43.00 70 hurdat_atl 1264 1240 O_____________ hurdat_atl AL091893 12.10 -43.00 HU 70 1 HU 9 279
1893 NA NA 21:00:00 TS 12.19 -43.45 1232 1210 P_____________ AL091893 12.19 -43.45 HU 72 1 HU 9 283
1893 NA NA 1893-10-01 00:00:00 TS 12.30 -43.90 75 hurdat_atl 1210 1183 O_____________ hurdat_atl AL091893 12.30 -43.90 HU 75 1 HU 9 282
1893 NA NA 03:00:00 TS 12.39 -44.39 1183 1157 P_____________ AL091893 12.39 -44.39 HU 77 1 HU 10 282
1893 NA NA 06:00:00 TS 12.50 -44.90 80 hurdat_atl 1157 1133 O_____________ hurdat_atl AL091893 12.50 -44.90 HU 80 1 HU 10 285
1893 NA NA 09:00:00 TS 12.65 -45.40 1133 1122 P_____________ AL091893 12.65 -45.40 HU 82 1 HU 10 287
1893 NA NA 12:00:00 TS 12.80 -45.90 85 hurdat_atl 1122 1098 O_____________ hurdat_atl AL091893 12.80 -45.90 HU 85 2 HU 10 284
1893 NA NA 15:00:00 TS 12.90 -46.39 1098 1074 P_____________ AL091893 12.90 -46.39 HU 87 2 HU 10 282
1893 NA NA 18:00:00 TS 13.00 -46.90 90 hurdat_atl 1074 1053 O_____________ hurdat_atl AL091893 13.00 -46.90 HU 90 2 HU 11 283
1893 NA NA 21:00:00 TS 13.14 -47.45 1053 1038 P_____________ AL091893 13.14 -47.45 HU 92 2 HU 11 286
1893 NA NA 1893-10-02 00:00:00 TS 13.30 -48.00 95 hurdat_atl 1038 1022 O_____________ hurdat_atl AL091893 13.30 -48.00 HU 95 2 HU 11 286
1893 NA NA 03:00:00 TS 13.44 -48.51 1022 1017 P_____________ AL091893 13.44 -48.51 HU 97 3 HU 10 287
1893 NA NA 06:00:00 TS 13.60 -49.00 100 hurdat_atl 1018 1012 O_____________ hurdat_atl AL091893 13.60 -49.00 HU 100 3 HU 10 290
1893 NA NA 09:00:00 TS 13.79 -49.51 1018 1012 P_____________ AL091893 13.79 -49.51 HU 102 3 HU 11 292
1893 NA NA 12:00:00 TS 14.00 -50.00 105 hurdat_atl 1017 1012 O_____________ hurdat_atl AL091893 14.00 -50.00 HU 105 3 HU 10 294
1893 NA NA 15:00:00 TS 14.20 -50.47 1014 1009 P_____________ AL091893 14.20 -50.47 HU 105 3 HU 10 295
1893 NA NA 18:00:00 TS 14.40 -50.90 105 hurdat_atl 1018 1014 O_____________ hurdat_atl AL091893 14.40 -50.90 HU 105 3 HU 9 297
1893 NA NA 21:00:00 TS 14.60 -51.27 1024 1024 P_____________ AL091893 14.60 -51.27 HU 105 3 HU 8 301
1893 NA NA 1893-10-03 00:00:00 TS 14.80 -51.60 105 hurdat_atl 1036 1033 O_____________ hurdat_atl AL091893 14.80 -51.60 HU 105 3 HU 7 302
1893 NA NA 03:00:00 TS 14.99 -51.92 1049 1047 P_____________ AL091893 14.99 -51.92 HU 105 3 HU 7 305
1893 NA NA 06:00:00 TS 15.20 -52.20 105 hurdat_atl 1064 1062 O_____________ hurdat_atl AL091893 15.20 -52.20 HU 105 3 HU 7 310
1893 NA NA 09:00:00 TS 15.43 -52.46 1060 1056 P_____________ AL091893 15.43 -52.46 HU 105 3 HU 7 316
1893 NA NA 12:00:00 TS 15.70 -52.70 105 hurdat_atl 1058 1052 O_____________ hurdat_atl AL091893 15.70 -52.70 HU 105 3 HU 7 320
1893 NA NA 15:00:00 TS 15.99 -52.95 1049 1044 P_____________ AL091893 15.99 -52.95 HU 105 3 HU 8 321
1893 NA NA 18:00:00 TS 16.30 -53.20 105 hurdat_atl 1050 1047 O_____________ hurdat_atl AL091893 16.30 -53.20 HU 105 3 HU 8 321
1893 NA NA 21:00:00 TS 16.59 -53.45 1045 1043 P_____________ AL091893 16.59 -53.45 HU 105 3 HU 8 321
1893 NA NA 1893-10-04 00:00:00 TS 16.90 -53.70 105 hurdat_atl 1050 1049 O_____________ hurdat_atl AL091893 16.90 -53.70 HU 105 3 HU 8 324
1893 NA NA 03:00:00 TS 17.25 -53.95 1048 1048 P_____________ AL091893 17.25 -53.95 HU 105 3 HU 9 326
1893 NA NA 06:00:00 TS 17.60 -54.20 105 hurdat_atl 1064 1064 O_____________ hurdat_atl AL091893 17.60 -54.20 HU 105 3 HU 8 352
1893 NA NA 09:00:00 TS 18.05 -54.08 1104 1104 P_____________ AL091893 17.91 -54.45 HU 105 3 HU 8 9
1893 NA NA 12:00:00 TS 18.42 -54.06 105 hurdat_atl 1137 1137 O____________O hurdat_atl AL091893 18.20 -54.70 HU 105 3 19.30 -51.50 MH 100 7 357
1893 NA NA 15:00:00 TS 18.78 -54.12 1171 1171 P____________P AL091893 18.51 -54.95 HU 105 3 19.51 -51.89 MH 100 7 347
1893 NA NA 18:00:00 TS 19.10 -54.23 105 hurdat_atl 1190 1172 O____________O hurdat_atl AL091893 18.80 -55.20 HU 105 3 19.70 -52.30 MH 100 7 323
1893 NA NA 21:00:00 TS 19.32 -54.55 1161 1142 P____________P AL091893 19.06 -55.45 HU 105 3 19.86 -52.75 MH 100 7 306
1893 NA NA 1893-10-05 00:00:00 TS 19.53 -54.87 105 hurdat_atl 1131 1102 O____________O hurdat_atl AL091893 19.30 -55.70 HU 105 3 20.00 -53.20 MH 100 7 306
1893 NA NA 03:00:00 TS 19.75 -55.17 1103 1075 P____________P AL091893 19.55 -55.95 HU 105 3 20.16 -53.61 MH 100 7 307
1893 NA NA 06:00:00 TS 19.97 -55.47 105 hurdat_atl 1075 1056 O____________O hurdat_atl AL091893 19.80 -56.20 HU 105 3 20.30 -54.00 MH 100 7 307
1893 NA NA 09:00:00 TS 20.17 -55.76 1047 1029 P____________P AL091893 20.05 -56.45 HU 105 3 20.41 -54.39 MH 100 7 305
1893 NA NA 12:00:00 TS 20.37 -56.07 105 hurdat_atl 1020 995 O____________O hurdat_atl AL091893 20.30 -56.70 HU 105 3 20.50 -54.80 MH 100 7 305
1893 NA NA 15:00:00 TS 20.57 -56.38 995 967 P____________P AL091893 20.56 -56.95 HU 105 3 20.60 -55.24 MH 100 7 304
1893 NA NA 18:00:00 TS 20.77 -56.70 105 hurdat_atl 969 942 O____________O hurdat_atl AL091893 20.80 -57.20 HU 105 3 20.70 -55.70 MH 100 7 302
1893 NA NA 21:00:00 TS 20.94 -57.02 942 919 P____________P AL091893 21.01 -57.45 HU 105 3 20.79 -56.15 MH 100 7 299
1893 NA NA 1893-10-06 00:00:00 TS 21.10 -57.33 105 hurdat_atl 919 893 O____________O hurdat_atl AL091893 21.20 -57.70 HU 105 3 20.90 -56.60 MH 100 7 298
1893 NA NA 03:00:00 TS 21.25 -57.65 887 871 P____________P AL091893 21.36 -57.95 HU 105 3 21.05 -57.05 MH 100 7 297
1893 NA NA 06:00:00 TS 21.40 -57.97 105 hurdat_atl 862 837 O____________O hurdat_atl AL091893 21.50 -58.20 HU 105 3 21.20 -57.50 MH 100 7 296
1893 NA NA 09:00:00 TS 21.54 -58.28 837 818 P____________P AL091893 21.66 -58.45 HU 105 3 21.31 -57.95 MH 102 6 294
1893 NA NA 12:00:00 TS 21.67 -58.60 105 hurdat_atl 818 796 O____________O hurdat_atl AL091893 21.80 -58.70 HU 105 3 21.40 -58.40 MH 105 6 292
1893 NA NA 15:00:00 TS 21.77 -58.91 796 768 P____________P AL091893 21.91 -58.94 HU 105 3 21.50 -58.85 MH 105 6 289
1893 NA NA 18:00:00 TS 21.87 -59.23 105 hurdat_atl 774 744 O____________O hurdat_atl AL091893 22.00 -59.20 HU 105 3 21.60 -59.30 MH 105 7 287
1893 NA NA 21:00:00 TS 21.97 -59.58 744 718 P____________P AL091893 22.10 -59.49 HU 105 3 21.70 -59.76 MH 105 7 287
1893 NA NA 1893-10-07 00:00:00 TS 22.07 -59.93 105 hurdat_atl 724 697 O____________O hurdat_atl AL091893 22.20 -59.80 HU 105 3 21.80 -60.20 MH 105 7 287
1893 NA NA 03:00:00 TS 22.17 -60.27 697 679 P____________P AL091893 22.30 -60.10 HU 105 3 21.90 -60.61 MH 105 6 288
1893 NA NA 06:00:00 TS 22.27 -60.60 105 hurdat_atl 679 655 O____________O hurdat_atl AL091893 22.40 -60.40 HU 105 3 22.00 -61.00 MH 105 6 288
1893 NA NA 09:00:00 TS 22.36 -60.93 663 640 P____________P AL091893 22.50 -60.69 HU 105 3 22.09 -61.39 MH 105 6 288
1893 NA NA 12:00:00 TS 22.47 -61.27 105 hurdat_atl 640 626 O____________O hurdat_atl AL091893 22.60 -61.00 HU 105 3 22.20 -61.80 MH 105 7 289
1893 NA NA 15:00:00 TS 22.59 -61.64 627 609 P____________P AL091893 22.71 -61.33 HU 105 3 22.35 -62.24 MH 105 7 288
1893 NA NA 18:00:00 TS 22.70 -62.03 105 hurdat_atl 609 590 O____________O hurdat_atl AL091893 22.80 -61.70 HU 105 3 22.50 -62.70 MH 105 8 284
1893 NA NA 21:00:00 TS 22.77 -62.45 594 571 P____________P AL091893 22.85 -62.09 HU 105 3 22.61 -63.15 MH 105 8 280
1893 NA NA 1893-10-08 00:00:00 TS 22.83 -62.87 105 hurdat_atl 566 557 O____________O hurdat_atl AL091893 22.90 -62.50 HU 105 3 22.70 -63.60 MH 105 8 282
1893 NA NA 03:00:00 TS 22.93 -63.28 557 551 P____________P AL091893 22.99 -62.89 HU 105 3 22.79 -64.05 MH 105 8 285
1893 NA NA 06:00:00 TS 23.03 -63.70 105 hurdat_atl 551 548 O____________O hurdat_atl AL091893 23.10 -63.30 HU 105 3 22.90 -64.50 MH 105 8 286
1893 NA NA 09:00:00 TS 23.15 -64.15 548 548 P____________P AL091893 23.20 -63.74 HU 105 3 23.05 -64.95 MH 105 9 286
1893 NA NA 12:00:00 TS 23.27 -64.60 105 hurdat_atl 557 551 O____________O hurdat_atl AL091893 23.30 -64.20 HU 105 3 23.20 -65.40 MH 105 9 285
1893 NA NA 15:00:00 TS 23.37 -65.05 561 559 P____________P AL091893 23.40 -64.65 HU 105 3 23.31 -65.85 MH 105 9 284
1893 NA NA 18:00:00 TS 23.47 -65.50 105 hurdat_atl 570 570 O____________O hurdat_atl AL091893 23.50 -65.10 HU 105 3 23.40 -66.30 MH 105 8 283
1893 NA NA 21:00:00 TS 23.56 -65.95 581 572 P____________P AL091893 23.60 -65.55 HU 105 3 23.49 -66.75 MH 105 8 284
1893 NA NA 1893-10-09 00:00:00 TS 23.67 -66.40 105 hurdat_atl 576 560 O____________O hurdat_atl AL091893 23.70 -66.00 HU 105 3 23.60 -67.20 MH 105 9 285
1893 NA NA 03:00:00 TS 23.78 -66.85 560 552 P____________P AL091893 23.80 -66.45 HU 105 3 23.75 -67.65 MH 105 9 286
1893 NA NA 06:00:00 TS 23.90 -67.30 105 hurdat_atl 554 545 O____________O hurdat_atl AL091893 23.90 -66.90 HU 105 3 23.90 -68.10 MH 105 9 285
1893 NA NA 09:00:00 TS 24.00 -67.75 541 533 P____________P AL091893 24.00 -67.35 HU 105 3 24.00 -68.55 MH 105 8 284
1893 NA NA 12:00:00 TS 24.10 -68.20 105 hurdat_atl 536 529 O____________O hurdat_atl AL091893 24.10 -67.80 HU 105 3 24.10 -69.00 MH 105 9 285
1893 NA NA 15:00:00 TS 24.22 -68.66 529 525 P____________P AL091893 24.20 -68.26 HU 105 3 24.25 -69.45 MH 105 9 286
1893 NA NA 18:00:00 TS 24.33 -69.10 105 hurdat_atl 526 506 O____________O hurdat_atl AL091893 24.30 -68.70 HU 105 3 24.40 -69.90 MH 105 8 285
1893 NA NA 21:00:00 TS 24.43 -69.52 506 486 P____________P AL091893 24.39 -69.11 HU 105 3 24.51 -70.35 MH 105 8 285
1893 NA NA 1893-10-10 00:00:00 TS 24.53 -69.93 105 hurdat_atl 486 469 O____________O hurdat_atl AL091893 24.50 -69.50 HU 105 3 24.60 -70.80 MH 105 8 287
1893 NA NA 03:00:00 TS 24.66 -70.35 478 461 P____________P AL091893 24.65 -69.89 HU 105 3 24.69 -71.25 MH 105 8 289
1893 NA NA 06:00:00 TS 24.80 -70.77 105 hurdat_atl 461 452 O____________O hurdat_atl AL091893 24.80 -70.30 HU 105 3 24.80 -71.70 MH 105 8 288
1893 NA NA 09:00:00 TS 24.92 -71.21 452 448 P____________P AL091893 24.91 -70.74 HU 105 3 24.95 -72.15 MH 105 8 286
1893 NA NA 12:00:00 TS 25.03 -71.67 105 hurdat_atl 445 445 O____________O hurdat_atl AL091893 25.00 -71.20 HU 105 3 25.10 -72.60 MH 105 9 284
1893 NA NA 15:00:00 TS 25.13 -72.15 445 443 P____________P AL091893 25.09 -71.69 HU 105 3 25.21 -73.05 MH 105 9 283
1893 NA NA 18:00:00 TS 25.23 -72.63 105 hurdat_atl 448 448 O____________O hurdat_atl AL091893 25.20 -72.20 HU 105 3 25.30 -73.50 MH 105 9 285
1893 NA NA 21:00:00 TS 25.36 -73.12 469 427 P____________P AL091893 25.34 -72.70 HU 105 3 25.39 -73.95 MH 105 9 287
1893 NA NA 1893-10-11 00:00:00 TS 25.50 -73.60 105 hurdat_atl 427 382 O____________O hurdat_atl AL091893 25.50 -73.20 HU 105 3 25.50 -74.40 MH 105 9 288
1893 NA NA 03:00:00 TS 25.65 -74.08 382 353 P____________P AL091893 25.65 -73.70 HU 105 3 25.65 -74.85 MH 105 9 289
1893 NA NA 06:00:00 TS 25.80 -74.57 105 hurdat_atl 343 311 O____________O hurdat_atl AL091893 25.80 -74.20 HU 105 3 25.80 -75.30 MH 105 9 288
1893 NA NA 09:00:00 TS 25.94 -75.05 302 270 P____________P AL091893 25.95 -74.70 HU 105 3 25.91 -75.76 MH 105 9 287
1893 NA NA 12:00:00 TS 26.07 -75.53 105 hurdat_atl 274 235 O____________O hurdat_atl AL091893 26.10 -75.20 HU 105 3 26.00 -76.20 MH 105 9 286
1893 NA NA 15:00:00 TS 26.18 -76.01 235 208 P____________P AL091893 26.24 -75.71 HU 105 3 26.07 -76.60 MH 105 9 288
1893 NA NA 18:00:00 TS 26.33 -76.47 105 hurdat_atl 201 191 O____________O hurdat_atl AL091893 26.40 -76.20 HU 105 3 26.20 -77.00 MH 105 9 295
1893 NA NA 21:00:00 TS 26.56 -76.91 200 190 P____________P AL091893 26.59 -76.65 HU 105 3 26.48 -77.43 MH 105 9 300
1893 NA NA 1893-10-12 00:00:00 TS 26.80 -77.37 105 hurdat_atl 199 196 O____________O hurdat_atl AL091893 26.80 -77.10 HU 105 3 26.80 -77.90 MH 105 10 297
1893 NA NA 03:00:00 TS 26.99 -77.86 209 171 P____________P AL091893 27.00 -77.60 HU 105 3 26.97 -78.39 MH 105 10 294
1893 NA NA 06:00:00 TS 27.20 -78.37 105 hurdat_atl 164 131 O____________O hurdat_atl AL091893 27.20 -78.10 HU 105 3 27.20 -78.90 MH 105 10 298
1893 NA NA 09:00:00 TS 27.48 -78.88 131 104 P____________P AL091893 27.38 -78.57 HU 105 3 27.66 -79.51 MH 105 10 305
1893 NA NA 12:00:00 TS 27.80 -79.33 105 hurdat_atl 108 89 O____________O hurdat_atl AL091893 27.60 -79.00 HU 105 3 28.20 -80.00 MH 105 9 315
1893 NA NA 15:00:00 TS 28.13 -79.62 91 58 P____________P AL091893 27.85 -79.35 HU 105 3 28.70 -80.17 MH 105 9 327
1893 NA NA 18:00:00 TS 28.53 -79.87 105 hurdat_atl 58 51 O____________O hurdat_atl AL091893 28.20 -79.70 HU 105 3 29.20 -80.20 MH 105 10 329
1893 NA NA 21:00:00 TS 29.02 -80.23 59 49 P____________P AL091893 28.68 -80.19 HU 105 3 29.70 -80.31 MH 105 12 331
1893 NA NA 1893-10-13 00:00:00 TS 29.60 -80.53 105 hurdat_atl 62 58 O____________O hurdat_atl AL091893 29.30 -80.60 HU 105 3 30.20 -80.40 MH 105 13 341
1893 NA NA 03:00:00 TS 30.23 -80.71 68 66 P____________P AL091893 30.00 -80.85 HU 105 3 30.70 -80.44 MH 105 13 355
1893 NA NA 06:00:00 TS 30.93 -80.67 105 hurdat_atl 66 57 O____________O hurdat_atl AL091893 30.80 -80.80 HU 105 3 31.20 -80.40 MH 105 14 13
1893 NA NA 09:00:00 TS 31.60 -80.34 65 24 P____________P AL091893 31.60 -80.34 HU 105 3 31.59 -80.34 MH 105 17 25
1893 NA NA 12:00:00 TS 32.47 -79.83 105 955 hurdat_atl 21 9 O____________O hurdat_atl AL091893 32.60 -79.70 HU 105 955 3 32.20 -80.10 MH 105 955 21 26
1893 NA NA 13:00:00 TS 32.83 -79.63 105 955 hurdat_atl 14 0 O____________P hurdat_atl AL091893 33.00 -79.50 L HU 105 955 3 32.48 -79.89 MH 100 24 26
1893 NA NA 15:00:00 TS 33.56 -79.20 0 0 P____________P AL091893 33.75 -79.10 HU 94 2 33.18 -79.38 MH 92 26 21
1893 NA NA 18:00:00 TS 34.87 -78.67 80 hurdat_atl 0 0 O____________O hurdat_atl AL091893 35.00 -78.60 HU 80 1 34.60 -78.80 HU 80 31 10
1893 NA NA 21:00:00 TS 36.66 -78.54 0 0 P____________P AL091893 36.72 -78.30 HU 72 1 36.53 -79.02 HU 72 38 1
1893 NA NA 1893-10-14 00:00:00 TS 38.63 -78.57 65 hurdat_atl 0 0 O____________O hurdat_atl AL091893 38.70 -78.10 HU 65 1 38.50 -79.50 HU 65 38 0
1893 NA NA 03:00:00 TS 40.44 -78.52 0 0 P____________P AL091893 40.75 -77.90 HU 62 0 39.80 -79.77 HU 62 36 3
1893 NA NA 06:00:00 TS 42.20 -78.33 60 hurdat_atl 0 0 O____________O hurdat_atl AL091893 42.70 -77.60 TS 60 0 41.20 -79.80 TS 60 36 8
1893 NA NA 09:00:00 TS 44.02 -77.88 0 0 P____________P AL091893 44.30 -77.08 TS 60 0 43.46 -79.48 TS 60 36 13
1893 NA NA 12:00:00 MX 45.70 -77.20 60 hurdat_atl 0 0 O____________O hurdat_atl AL091893 45.70 -76.40 EX 60 -4 45.70 -78.80 TS 60 32 19
1893 NA NA 15:00:00 MX 47.08 -76.40 0 0 P____________P AL091893 47.04 -75.65 EX 60 -4 47.16 -77.89 TS 60 29 25
1893 NA NA 18:00:00 ET 48.30 -75.43 60 hurdat_atl 0 0 O____________O hurdat_atl AL091893 48.30 -74.80 EX 60 -4 48.30 -76.70 EX 60 28 29
1893 NA NA 21:00:00 ET 49.53 -74.35 0 0 P____________P AL091893 49.53 -73.89 EX 60 -4 49.53 -75.27 EX 60 28 32
1893 NA NA 1893-10-15 00:00:00 ET 50.70 -73.17 60 hurdat_atl 0 0 O____________O hurdat_atl AL091893 50.70 -72.90 EX 60 -4 50.70 -73.70 EX 60 28 34
1893 NA NA 03:00:00 ET 51.83 -71.95 0 0 P____________P AL091893 51.83 -71.84 EX 60 -4 51.83 -72.16 EX 60 27 35
1893 NA NA 06:00:00 ET 52.90 -70.70 60 hurdat_atl 0 0 O____________O hurdat_atl AL091893 52.90 -70.70 EX 60 -4 52.90 -70.70 EX 60 26 36
1893 NA NA 09:00:00 ET 53.91 -69.42 0 0 P____________P AL091893 53.91 -69.45 EX 55 -4 53.91 -69.38 EX 55 25 36
1893 NA NA 12:00:00 ET 54.90 -68.20 50 hurdat_atl 0 0 O____________O hurdat_atl AL091893 54.90 -68.20 EX 50 -4 54.90 -68.20 EX 50 24 34
1893 NA NA 15:00:00 ET 55.94 -67.08 0 0 P____________P AL091893 55.94 -67.07 EX 45 -4 55.94 -67.10 EX 45 24 30
1893 NA NA 18:00:00 ET 57.00 -66.00 40 hurdat_atl 0 O____________O hurdat_atl AL091893 57.00 -66.00 EX 40 -4 57.00 -66.00 EX 40 24 29